Time;durP1;ratioP1;P1;durP2;ratioP2;P2;SDS_P1;SDS_P2;PMS_P1;PMS_P2;Temp;Humidity;BMP_temperature;BMP_pressure;BME280_temperature;BME280_humidity;BME280_pressure;Samples;Min_cycle;Max_cycle;Signal;HPM_P1;HPM_P2
2021/03/30 00:01:32;;;;;;;37.67;19.70;;;;;;;6.86;93.79;102919.22;5019724;28;20038;-78
2021/03/30 00:03:58;;;;;;;38.83;21.15;;;;;;;6.84;93.24;102921.88;5019456;28;20046;-80
2021/03/30 00:06:23;;;;;;;40.33;20.98;;;;;;;6.84;93.59;102919.28;5027597;28;20050;-79
2021/03/30 00:08:49;;;;;;;39.72;19.83;;;;;;;6.94;93.64;102917.09;5024841;28;20060;-82
2021/03/30 00:11:15;;;;;;;36.55;19.17;;;;;;;6.85;93.63;102923.56;5007552;28;20500;-80
2021/03/30 00:13:40;;;;;;;30.33;17.20;;;;;;;6.85;93.61;102912.28;5004646;28;20083;-78
2021/03/30 00:16:06;;;;;;;37.25;18.70;;;;;;;6.87;94.27;102919.13;5021504;28;20038;-78
2021/03/30 00:18:32;;;;;;;41.42;16.63;;;;;;;6.95;93.65;102924.84;4986869;28;20060;-78
2021/03/30 00:20:58;;;;;;;35.05;13.82;;;;;;;7.18;92.25;102915.97;5027545;28;20037;-75
2021/03/30 00:23:23;;;;;;;32.35;12.30;;;;;;;7.28;91.92;102918.16;5033018;28;20057;-78
2021/03/30 00:25:49;;;;;;;28.45;11.23;;;;;;;7.29;91.22;102923.31;5008318;28;20042;-79
2021/03/30 00:28:15;;;;;;;30.95;10.10;;;;;;;7.26;91.36;102920.81;4977181;28;20042;-81
2021/03/30 00:30:40;;;;;;;30.50;10.82;;;;;;;7.32;90.69;102924.91;4989669;28;20046;-80
2021/03/30 00:33:06;;;;;;;23.15;9.80;;;;;;;7.55;88.46;102919.47;4974786;28;20041;-79
2021/03/30 00:35:32;;;;;;;23.17;9.80;;;;;;;7.57;88.51;102925.44;4991268;28;20037;-81
2021/03/30 00:37:57;;;;;;;28.70;10.10;;;;;;;7.70;87.50;102925.69;5007225;28;20041;-80
2021/03/30 00:40:23;;;;;;;27.23;10.65;;;;;;;7.57;88.67;102927.19;5006750;28;20061;-80
2021/03/30 00:42:52;;;;;;;24.98;10.52;;;;;;;7.49;88.63;102926.72;4982428;28;20046;-80
2021/03/30 00:45:17;;;;;;;28.30;10.70;;;;;;;7.41;88.78;102935.75;5007740;28;20692;-80
2021/03/30 00:47:45;;;;;;;24.83;10.13;;;;;;;7.31;89.32;102921.47;4998042;28;20054;-79
2021/03/30 00:50:16;;;;;;;33.05;10.88;;;;;;;7.32;89.07;102930.97;4996742;28;20049;-80
2021/03/30 00:52:43;;;;;;;29.20;9.65;;;;;;;7.39;88.51;102931.53;4972870;28;20049;-82
2021/03/30 00:55:15;;;;;;;33.08;10.80;;;;;;;7.56;87.59;102923.75;4996052;28;20034;-76
2021/03/30 00:57:45;;;;;;;26.25;10.60;;;;;;;7.58;87.53;102939.34;4984995;28;20054;-80
2021/03/30 01:00:13;;;;;;;24.00;10.30;;;;;;;7.51;87.71;102927.50;4980668;28;20224;-79
2021/03/30 01:02:39;;;;;;;20.25;9.23;;;;;;;7.46;87.80;102934.69;4992446;28;20045;-77
2021/03/30 01:05:10;;;;;;;19.75;8.98;;;;;;;7.45;88.02;102935.63;4996022;28;20538;-79
2021/03/30 01:07:38;;;;;;;24.63;10.23;;;;;;;7.35;87.97;102933.44;4987579;28;20050;-79
2021/03/30 01:10:33;;;;;;;23.05;10.13;;;;;;;7.21;88.66;102922.78;4976492;28;20154;-79
2021/03/30 01:13:11;;;;;;;27.67;10.50;;;;;;;7.15;88.77;102934.34;4997542;28;20624;-80
2021/03/30 01:15:47;;;;;;;24.45;10.27;;;;;;;7.04;89.26;102927.94;4998430;28;20042;-79
2021/03/30 01:18:34;;;;;;;24.90;10.18;;;;;;;6.96;89.22;102939.56;5015333;28;20100;-80
2021/03/30 01:21:08;;;;;;;20.35;9.90;;;;;;;6.86;89.59;102934.84;4993297;28;20043;-80
2021/03/30 01:23:36;;;;;;;22.88;10.00;;;;;;;6.80;89.81;102938.59;4994867;28;20076;-79
2021/03/30 01:26:09;;;;;;;31.25;9.65;;;;;;;6.82;90.02;102940.19;4990852;28;20107;-80
2021/03/30 01:28:59;;;;;;;29.98;10.57;;;;;;;6.89;89.96;102937.31;4997122;28;20129;-80
2021/03/30 01:31:28;;;;;;;27.88;10.57;;;;;;;6.87;89.40;102939.16;5016591;28;20034;-82
2021/03/30 01:33:57;;;;;;;21.13;10.05;;;;;;;6.84;90.14;102940.13;4982750;28;20073;-78
2021/03/30 01:36:24;;;;;;;28.00;10.60;;;;;;;6.91;89.47;102944.19;4961202;28;20050;-79
2021/03/30 01:38:51;;;;;;;23.73;10.18;;;;;;;6.93;89.44;102942.34;5000843;28;20046;-78
2021/03/30 01:41:18;;;;;;;25.98;9.98;;;;;;;6.94;89.07;102932.75;4997040;28;20081;-80
2021/03/30 01:43:46;;;;;;;25.80;9.35;;;;;;;6.99;88.61;102933.38;4989035;28;20400;-79
2021/03/30 01:46:13;;;;;;;23.55;10.48;;;;;;;6.92;88.98;102934.56;5003188;28;20050;-78
2021/03/30 01:48:41;;;;;;;29.17;10.38;;;;;;;6.89;88.92;102930.31;4976670;28;20073;-78
2021/03/30 01:51:07;;;;;;;25.13;9.23;;;;;;;6.91;88.89;102935.47;4996586;28;20148;-78
2021/03/30 01:53:35;;;;;;;25.00;9.65;;;;;;;6.94;88.80;102923.16;4994275;28;20069;-80
2021/03/30 01:56:02;;;;;;;26.13;9.75;;;;;;;7.10;88.00;102932.88;5010055;28;20057;-80
2021/03/30 01:58:30;;;;;;;22.52;9.70;;;;;;;7.04;88.28;102934.00;4980152;28;20042;-79
2021/03/30 02:00:57;;;;;;;28.05;9.77;;;;;;;6.96;88.38;102928.28;4992470;28;20057;-79
2021/03/30 02:03:24;;;;;;;25.05;9.57;;;;;;;7.25;87.49;102932.16;4981966;28;20065;-78
2021/03/30 02:05:49;;;;;;;22.58;8.98;;;;;;;7.56;85.83;102922.91;4976802;28;20056;-79
2021/03/30 02:08:17;;;;;;;23.45;8.18;;;;;;;7.96;83.70;102932.25;4993754;28;20050;-79
2021/03/30 02:13:21;;;;;;;26.50;7.53;;;;;;;7.99;82.83;102929.50;5000802;28;20049;-76
2021/03/30 02:15:47;;;;;;;21.75;7.93;;;;;;;7.74;83.36;102924.63;4992394;28;20042;-78
2021/03/30 02:18:16;;;;;;;26.63;8.15;;;;;;;7.71;83.35;102926.56;5008288;28;20045;-77
2021/03/30 02:20:44;;;;;;;17.13;7.45;;;;;;;7.58;83.71;102934.13;4969685;28;20038;-78
2021/03/30 02:23:24;;;;;;;19.58;7.47;;;;;;;7.75;82.80;102933.31;4998282;28;20120;-81
2021/03/30 02:25:55;;;;;;;26.10;7.88;;;;;;;7.97;80.52;102927.91;5029690;28;20042;-74
2021/03/30 02:28:25;;;;;;;24.73;7.35;;;;;;;7.92;81.13;102922.88;5033475;28;20053;-74
2021/03/30 02:30:53;;;;;;;21.17;7.55;;;;;;;7.82;81.42;102936.47;5017269;28;20275;-73
2021/03/30 02:33:23;;;;;;;18.17;7.00;;;;;;;7.68;82.22;102924.91;5026758;28;20050;-77
2021/03/30 02:35:50;;;;;;;15.90;6.40;;;;;;;7.61;82.09;102931.38;5002417;28;20030;-73
2021/03/30 02:38:16;;;;;;;17.38;6.30;;;;;;;7.46;82.60;102937.31;4982095;28;20057;-76
2021/03/30 02:40:45;;;;;;;17.75;6.60;;;;;;;7.40;82.76;102933.22;4997580;28;20061;-77
2021/03/30 02:43:12;;;;;;;22.08;6.13;;;;;;;7.28;82.65;102920.75;4999381;28;20033;-79
2021/03/30 02:45:39;;;;;;;19.83;6.55;;;;;;;7.31;82.19;102937.13;4998962;28;20054;-79
2021/03/30 02:48:07;;;;;;;21.77;6.43;;;;;;;7.30;82.49;102939.81;4998158;28;20073;-78
2021/03/30 02:50:34;;;;;;;14.73;5.63;;;;;;;7.30;82.48;102938.03;5030222;28;20579;-77
2021/03/30 02:53:01;;;;;;;21.90;6.90;;;;;;;7.26;82.61;102933.03;4990480;28;20042;-82
2021/03/30 02:55:28;;;;;;;16.02;6.10;;;;;;;7.25;82.79;102937.38;4957864;28;20047;-79
2021/03/30 02:57:54;;;;;;;20.65;6.80;;;;;;;7.15;82.96;102942.19;4991759;28;20053;-79
2021/03/30 03:00:20;;;;;;;23.08;7.40;;;;;;;7.06;83.23;102936.53;4943047;28;20047;-79
2021/03/30 03:02:47;;;;;;;20.58;7.10;;;;;;;6.95;84.08;102931.81;4989559;28;20112;-78
2021/03/30 03:05:13;;;;;;;22.00;6.75;;;;;;;6.97;84.01;102946.50;5007148;28;20116;-77
2021/03/30 03:07:39;;;;;;;19.20;6.93;;;;;;;6.93;84.20;102949.28;5007037;28;20071;-78
2021/03/30 03:10:07;;;;;;;20.98;6.55;;;;;;;6.75;84.45;102935.31;5007473;28;20052;-79
2021/03/30 03:12:36;;;;;;;22.90;6.72;;;;;;;6.78;84.90;102943.88;5009654;28;20045;-75
2021/03/30 03:15:03;;;;;;;20.38;6.93;;;;;;;6.75;84.65;102943.16;5007727;28;20053;-80
2021/03/30 03:17:30;;;;;;;26.00;7.07;;;;;;;6.91;83.32;102946.78;4980748;28;20527;-80
2021/03/30 03:19:56;;;;;;;19.13;6.45;;;;;;;6.97;83.20;102943.88;4997483;28;20046;-80
2021/03/30 03:22:23;;;;;;;16.17;6.47;;;;;;;7.15;81.77;102934.34;4988239;28;20046;-79
2021/03/30 03:24:49;;;;;;;18.38;6.75;;;;;;;7.12;81.95;102933.66;5008719;28;20129;-77
2021/03/30 03:27:16;;;;;;;19.25;6.95;;;;;;;7.13;81.51;102930.97;4993964;28;20081;-79
2021/03/30 03:29:42;;;;;;;23.35;6.65;;;;;;;7.12;81.67;102938.88;5018685;28;20050;-79
2021/03/30 03:32:08;;;;;;;18.05;6.22;;;;;;;7.02;81.88;102939.28;5002860;28;20052;-79
2021/03/30 03:34:36;;;;;;;18.48;6.45;;;;;;;7.02;81.73;102941.91;4988658;28;20109;-79
2021/03/30 03:37:02;;;;;;;18.58;6.47;;;;;;;6.93;81.98;102942.34;4970378;28;20061;-79
2021/03/30 03:39:28;;;;;;;21.38;6.93;;;;;;;7.00;81.59;102943.72;5021559;28;20045;-79
2021/03/30 03:41:54;;;;;;;21.38;6.50;;;;;;;6.96;81.15;102930.91;5019641;28;20057;-78
2021/03/30 03:44:20;;;;;;;18.00;6.32;;;;;;;6.99;81.88;102941.22;4976372;28;20045;-79
2021/03/30 03:46:49;;;;;;;29.02;6.55;;;;;;;6.95;81.70;102942.25;4974955;28;20521;-81
2021/03/30 03:49:15;;;;;;;18.85;6.35;;;;;;;6.88;81.89;102938.25;5003450;28;20064;-78
2021/03/30 03:51:47;;;;;;;16.70;6.40;;;;;;;6.80;82.08;102933.38;5001234;28;20038;-79
2021/03/30 03:54:16;;;;;;;22.58;6.55;;;;;;;6.75;82.75;102930.09;5014248;28;20042;-80
2021/03/30 03:56:46;;;;;;;15.50;6.75;;;;;;;6.80;82.75;102935.97;5021111;28;20128;-77
2021/03/30 03:59:17;;;;;;;22.95;6.80;;;;;;;6.75;82.93;102935.31;5008983;28;20045;-82
2021/03/30 04:02:08;;;;;;;22.08;7.43;;;;;;;6.76;83.15;102944.81;5028742;28;20042;-77
2021/03/30 04:04:53;;;;;;;19.30;6.68;;;;;;;6.66;83.75;102936.56;4968847;28;20045;-81
2021/03/30 04:07:22;;;;;;;18.98;6.15;;;;;;;6.55;83.89;102942.25;5002419;28;20069;-78
2021/03/30 04:09:52;;;;;;;20.05;6.65;;;;;;;6.53;84.29;102940.63;5027440;28;20102;-80
2021/03/30 04:12:19;;;;;;;17.23;6.70;;;;;;;6.47;84.75;102941.75;4996688;28;20117;-79
2021/03/30 04:14:45;;;;;;;17.20;6.63;;;;;;;6.34;84.71;102930.97;5015550;28;20065;-75
2021/03/30 04:17:16;;;;;;;20.02;8.07;;;;;;;6.41;85.02;102940.25;4996781;28;20057;-82
2021/03/30 04:19:42;;;;;;;20.55;7.25;;;;;;;6.39;85.30;102944.66;5005386;28;20050;-77
2021/03/30 04:22:07;;;;;;;23.00;7.85;;;;;;;6.33;85.66;102944.06;5010092;28;20041;-79
2021/03/30 04:24:33;;;;;;;26.65;8.15;;;;;;;6.24;85.58;102927.09;4975992;28;20331;-80
2021/03/30 04:26:58;;;;;;;28.40;8.45;;;;;;;6.25;85.96;102944.41;5006828;28;20049;-80
2021/03/30 04:29:24;;;;;;;23.83;8.30;;;;;;;6.18;86.34;102930.78;5024256;28;20052;-78
2021/03/30 04:31:49;;;;;;;26.73;8.48;;;;;;;6.19;86.40;102942.91;5019768;28;20053;-81
2021/03/30 04:34:16;;;;;;;22.98;8.85;;;;;;;6.16;86.56;102945.66;5014395;28;20061;-79
2021/03/30 04:36:41;;;;;;;20.88;9.07;;;;;;;6.10;86.39;102932.84;5000978;28;20420;-80
2021/03/30 04:39:07;;;;;;;22.38;9.93;;;;;;;6.13;86.09;102932.72;4978925;28;20042;-78
2021/03/30 04:41:32;;;;;;;26.83;10.75;;;;;;;6.15;86.25;102941.34;5000697;28;20050;-79
2021/03/30 04:43:58;;;;;;;26.15;10.75;;;;;;;6.14;86.35;102947.47;5003176;28;20046;-80
2021/03/30 04:46:24;;;;;;;27.02;10.23;;;;;;;6.08;86.75;102936.44;5013467;28;20046;-80
2021/03/30 04:48:50;;;;;;;28.77;10.90;;;;;;;6.03;86.93;102936.66;5021757;28;20081;-81
2021/03/30 04:51:16;;;;;;;32.75;11.05;;;;;;;6.08;86.51;102955.53;5018609;28;20053;-81
2021/03/30 04:53:42;;;;;;;19.77;9.55;;;;;;;6.02;86.50;102953.19;5033032;28;20050;-81
2021/03/30 04:56:08;;;;;;;24.83;10.23;;;;;;;6.06;86.96;102962.56;5028974;28;20064;-81
2021/03/30 04:58:33;;;;;;;25.42;10.95;;;;;;;6.11;87.13;102965.00;5031500;28;20439;-78
2021/03/30 05:00:59;;;;;;;22.88;11.30;;;;;;;6.18;87.34;102971.66;5022262;28;20519;-81
2021/03/30 05:03:24;;;;;;;29.42;11.00;;;;;;;6.16;87.19;102963.88;4980579;28;20039;-79
2021/03/30 05:05:50;;;;;;;31.50;11.32;;;;;;;6.10;87.41;102971.09;4999344;28;20053;-80
2021/03/30 05:08:16;;;;;;;21.52;10.38;;;;;;;6.08;87.51;102967.72;4982480;28;20056;-80
2021/03/30 05:10:41;;;;;;;29.42;11.43;;;;;;;6.09;87.60;102974.63;5013452;28;20055;-82
2021/03/30 05:13:07;;;;;;;25.60;11.73;;;;;;;6.06;87.53;102974.75;5004785;28;20413;-81
2021/03/30 05:15:32;;;;;;;25.08;11.77;;;;;;;6.10;87.85;102984.13;5028243;28;20053;-80
2021/03/30 05:17:58;;;;;;;24.27;12.07;;;;;;;5.98;87.42;102973.28;5008580;28;20049;-81
2021/03/30 05:20:23;;;;;;;22.33;11.13;;;;;;;6.01;88.00;102982.75;4994036;28;20567;-80
2021/03/30 05:22:49;;;;;;;32.72;11.20;;;;;;;6.00;87.47;102973.22;4995793;28;20363;-73
2021/03/30 05:25:15;;;;;;;27.48;12.15;;;;;;;6.04;87.78;102983.44;5027346;28;20062;-78
2021/03/30 05:27:41;;;;;;;22.17;12.23;;;;;;;6.01;87.86;102973.19;4985371;28;20057;-80
2021/03/30 05:30:12;;;;;;;26.70;11.63;;;;;;;6.10;87.93;102986.72;4997572;28;20394;-80
2021/03/30 05:32:37;;;;;;;26.90;11.52;;;;;;;6.12;87.81;102982.31;5013608;28;20072;-80
2021/03/30 05:35:07;;;;;;;25.35;11.77;;;;;;;6.12;87.72;102992.72;4998250;28;20066;-81
2021/03/30 05:37:32;;;;;;;26.60;12.63;;;;;;;6.14;88.19;102990.91;5000368;28;20037;-81
2021/03/30 05:39:58;;;;;;;25.73;11.60;;;;;;;6.09;88.43;102996.31;5008517;28;20052;-78
2021/03/30 05:42:24;;;;;;;28.23;12.40;;;;;;;6.07;89.04;102997.28;5007266;28;20420;-80
2021/03/30 05:44:53;;;;;;;22.50;11.50;;;;;;;6.06;88.91;102998.19;5027722;28;20111;-81
2021/03/30 05:47:29;;;;;;;22.90;11.07;;;;;;;6.07;89.21;102989.47;5004873;28;20590;-81
2021/03/30 05:49:55;;;;;;;27.92;11.75;;;;;;;6.07;88.80;102981.66;5013261;28;20056;-81
2021/03/30 05:52:32;;;;;;;23.27;11.63;;;;;;;6.22;88.59;102987.09;5001462;28;20042;-80
2021/03/30 05:54:58;;;;;;;29.42;13.70;;;;;;;6.36;88.53;102985.66;4985917;28;20049;-79
2021/03/30 05:57:26;;;;;;;25.70;12.95;;;;;;;6.47;88.38;102980.00;4988665;28;20049;-80
2021/03/30 05:59:55;;;;;;;31.40;13.73;;;;;;;6.66;88.24;102995.72;5004110;28;20120;-80
2021/03/30 06:02:34;;;;;;;27.65;14.00;;;;;;;6.77;87.88;102988.28;5036448;28;20128;-80
2021/03/30 06:05:00;;;;;;;35.95;14.40;;;;;;;6.85;88.05;102994.00;5023276;28;20049;-80
2021/03/30 06:07:28;;;;;;;26.73;14.35;;;;;;;6.88;87.98;103001.69;5006582;28;20069;-80
2021/03/30 06:09:54;;;;;;;31.15;14.23;;;;;;;7.01;87.31;103002.84;4990435;28;20045;-80
2021/03/30 06:12:19;;;;;;;30.00;14.82;;;;;;;7.13;87.04;102998.84;5029489;28;20614;-80
2021/03/30 06:14:47;;;;;;;30.70;14.65;;;;;;;7.23;86.63;103004.47;5018559;28;20081;-79
2021/03/30 06:17:14;;;;;;;32.83;14.32;;;;;;;7.30;86.55;103003.28;4981906;28;20038;-80
2021/03/30 06:19:50;;;;;;;30.90;14.82;;;;;;;7.54;85.91;103003.09;4985787;28;20412;-81
2021/03/30 06:22:16;;;;;;;31.55;14.93;;;;;;;7.59;85.45;103007.19;4996571;28;20037;-79
2021/03/30 06:24:43;;;;;;;28.42;14.07;;;;;;;7.83;84.36;103019.16;5018347;28;20049;-72
2021/03/30 06:27:09;;;;;;;26.70;13.77;;;;;;;8.00;83.61;103019.19;5035434;28;20056;-79
2021/03/30 06:29:39;;;;;;;29.50;14.10;;;;;;;8.21;83.15;103019.06;5029123;28;20058;-77
2021/03/30 06:32:10;;;;;;;32.95;13.88;;;;;;;8.39;82.85;103026.03;5013258;28;20516;-79
2021/03/30 06:34:37;;;;;;;29.98;12.85;;;;;;;8.63;81.79;103026.59;4987056;28;20471;-80
2021/03/30 06:37:28;;;;;;;29.55;11.88;;;;;;;8.97;80.41;103032.72;4986669;28;20046;-80
2021/03/30 06:39:56;;;;;;;29.63;10.02;;;;;;;9.50;73.82;103015.91;5017912;28;20049;-80
2021/03/30 06:45:03;;;;;;;23.80;9.57;;;;;;;10.22;70.13;103033.75;5008480;28;20046;-79
2021/03/30 06:47:30;;;;;;;21.20;9.50;;;;;;;10.44;69.48;103036.03;5009653;28;20072;-79
2021/03/30 06:50:01;;;;;;;24.08;9.13;;;;;;;10.54;68.81;103034.53;5027101;28;20059;-79
2021/03/30 06:52:33;;;;;;;19.13;8.30;;;;;;;10.65;69.44;103037.38;5017286;28;20045;-80
2021/03/30 06:55:00;;;;;;;20.13;8.32;;;;;;;10.82;68.73;103033.75;5008313;28;20113;-82
2021/03/30 06:57:44;;;;;;;22.95;8.13;;;;;;;10.93;68.74;103040.16;5028938;28;20049;-82
2021/03/30 07:00:21;;;;;;;17.60;8.20;;;;;;;11.03;67.38;103036.00;4996002;28;20058;-77
2021/03/30 07:02:52;;;;;;;19.90;7.82;;;;;;;11.12;66.63;103024.13;4999967;28;20069;-80
2021/03/30 07:05:29;;;;;;;21.85;8.70;;;;;;;11.19;67.14;103034.16;4997801;28;20054;-81
2021/03/30 07:08:00;;;;;;;23.60;7.72;;;;;;;11.30;67.48;103041.34;5000246;28;20574;-79
2021/03/30 07:10:27;;;;;;;21.77;8.88;;;;;;;11.47;66.80;103042.91;5032701;28;20042;-75
2021/03/30 07:12:54;;;;;;;17.63;7.45;;;;;;;11.60;66.44;103035.13;5012289;28;20113;-79
2021/03/30 07:15:23;;;;;;;17.67;7.63;;;;;;;11.67;65.27;103039.03;5016018;28;20080;-80
2021/03/30 07:17:57;;;;;;;16.90;7.63;;;;;;;11.74;65.86;103045.59;5006850;28;20079;-81
2021/03/30 07:20:23;;;;;;;14.10;7.40;;;;;;;11.86;64.50;103041.34;5005352;28;20042;-79
2021/03/30 07:22:50;;;;;;;23.48;8.10;;;;;;;11.90;65.85;103048.13;4996711;28;20044;-78
2021/03/30 07:25:21;;;;;;;19.92;8.43;;;;;;;11.92;66.29;103053.28;5015221;28;20088;-75
2021/03/30 07:27:59;;;;;;;19.25;7.95;;;;;;;12.02;65.98;103052.59;5029967;28;20518;-77
2021/03/30 07:30:26;;;;;;;20.42;8.27;;;;;;;12.18;65.45;103060.31;5021700;28;20037;-80
2021/03/30 07:33:11;;;;;;;16.70;7.65;;;;;;;12.18;66.23;103046.31;5022802;28;20053;-80
2021/03/30 07:35:38;;;;;;;25.40;8.38;;;;;;;12.21;66.29;103056.66;5014864;28;20041;-76
2021/03/30 07:38:22;;;;;;;17.35;7.60;;;;;;;12.30;66.94;103055.19;5001809;28;20041;-79
2021/03/30 07:40:48;;;;;;;18.98;8.50;;;;;;;12.32;65.74;103066.47;5022455;28;20049;-79
2021/03/30 07:43:25;;;;;;;19.27;7.93;;;;;;;12.38;65.98;103063.44;5006428;28;20041;-78
2021/03/30 07:45:53;;;;;;;17.52;8.02;;;;;;;12.45;65.40;103073.47;5013777;28;20049;-78
2021/03/30 07:48:21;;;;;;;17.80;8.15;;;;;;;12.48;66.10;103066.31;5035003;28;20041;-78
2021/03/30 07:51:21;;;;;;;19.27;8.77;;;;;;;12.55;66.95;103078.13;5017193;28;20394;-79
2021/03/30 07:53:50;;;;;;;16.08;7.75;;;;;;;12.66;66.77;103076.44;5028687;28;20089;-77
2021/03/30 07:56:22;;;;;;;15.20;7.60;;;;;;;12.60;67.09;103084.75;5003594;28;20057;-80
2021/03/30 07:58:48;;;;;;;14.05;7.38;;;;;;;12.75;66.67;103088.16;5009328;28;20157;-79
2021/03/30 08:01:14;;;;;;;18.17;7.88;;;;;;;12.87;66.06;103078.56;5006781;28;20790;-80
2021/03/30 08:03:43;;;;;;;21.73;8.00;;;;;;;12.97;65.78;103086.69;5011960;28;20050;-80
2021/03/30 08:06:19;;;;;;;20.88;7.90;;;;;;;13.10;65.32;103081.41;4984265;28;20076;-79
2021/03/30 08:08:58;;;;;;;20.00;7.85;;;;;;;13.07;65.01;103074.56;5017979;28;20065;-78
2021/03/30 08:11:43;;;;;;;19.33;8.15;;;;;;;13.19;65.95;103092.16;4992035;28;20092;-81
2021/03/30 08:14:18;;;;;;;18.63;7.78;;;;;;;13.24;65.21;103097.97;5016510;28;20096;-76
2021/03/30 08:16:46;;;;;;;20.60;8.07;;;;;;;13.33;66.17;103100.94;5006403;28;20038;-80
2021/03/30 08:19:13;;;;;;;16.73;7.93;;;;;;;13.37;65.70;103102.41;4973932;28;20105;-79
2021/03/30 08:21:57;;;;;;;16.73;7.57;;;;;;;13.43;65.80;103096.72;4971407;28;20078;-80
2021/03/30 08:24:24;;;;;;;20.17;8.10;;;;;;;13.60;66.35;103100.81;4972373;28;20288;-80
2021/03/30 08:26:49;;;;;;;18.13;8.05;;;;;;;13.71;64.64;103097.38;4993782;28;20066;-80
2021/03/30 08:29:22;;;;;;;16.50;8.00;;;;;;;13.73;64.98;103095.47;5009155;28;20545;-78
2021/03/30 08:31:53;;;;;;;15.32;7.97;;;;;;;13.77;66.23;103102.25;4996573;28;20427;-82
2021/03/30 08:34:27;;;;;;;18.67;7.57;;;;;;;13.79;66.02;103100.34;5008682;28;20096;-79
2021/03/30 08:36:55;;;;;;;14.50;7.82;;;;;;;13.86;65.49;103106.00;4979366;28;20053;-78
2021/03/30 08:39:21;;;;;;;22.33;8.35;;;;;;;13.98;66.34;103107.75;4989858;28;20050;-78
2021/03/30 08:41:47;;;;;;;16.65;8.52;;;;;;;14.14;65.72;103104.84;4987891;28;20475;-82
2021/03/30 08:44:17;;;;;;;22.05;8.60;;;;;;;14.15;64.11;103110.00;4990391;28;20050;-79
2021/03/30 08:46:51;;;;;;;17.20;8.00;;;;;;;14.13;64.20;103098.72;5009205;28;20121;-80
2021/03/30 08:49:20;;;;;;;20.40;8.02;;;;;;;14.25;66.56;103106.69;5008295;28;20423;-80
2021/03/30 08:51:46;;;;;;;19.70;8.45;;;;;;;14.33;64.88;103105.16;5027369;28;20120;-79
2021/03/30 08:54:13;;;;;;;15.57;7.95;;;;;;;14.43;64.54;103101.84;5000137;28;20071;-76
2021/03/30 08:56:41;;;;;;;18.15;8.05;;;;;;;14.54;63.69;103115.94;4994501;28;20057;-81
2021/03/30 08:59:09;;;;;;;14.75;7.07;;;;;;;14.58;64.92;103108.66;5010581;28;20041;-79
2021/03/30 09:01:35;;;;;;;13.50;7.60;;;;;;;14.64;65.98;103115.28;4974006;28;20387;-80
2021/03/30 09:04:01;;;;;;;14.45;7.30;;;;;;;14.68;63.89;103112.28;5005955;28;20044;-78
2021/03/30 09:06:28;;;;;;;16.63;7.95;;;;;;;14.68;64.32;103117.56;4976646;28;20521;-82
2021/03/30 09:08:53;;;;;;;19.88;7.57;;;;;;;14.96;65.32;103107.56;5001612;28;20054;-78
2021/03/30 09:11:25;;;;;;;17.55;8.18;;;;;;;15.03;63.88;103108.78;5006317;28;20037;-79
2021/03/30 09:14:00;;;;;;;17.20;8.07;;;;;;;15.06;63.59;103108.50;5005026;28;20461;-82
2021/03/30 09:16:26;;;;;;;12.98;7.38;;;;;;;15.12;64.23;103107.19;5011216;28;20074;-82
2021/03/30 09:19:12;;;;;;;15.23;7.38;;;;;;;15.36;64.56;103109.72;5000678;28;20038;-82
2021/03/30 09:21:38;;;;;;;14.68;7.35;;;;;;;15.27;64.36;103111.28;4994508;28;21396;-82
2021/03/30 09:24:09;;;;;;;14.18;7.80;;;;;;;15.39;64.53;103114.78;4977233;28;20038;-79
2021/03/30 09:26:37;;;;;;;15.25;8.30;;;;;;;15.64;63.20;103104.91;5013261;28;20054;-82
2021/03/30 09:29:03;;;;;;;14.77;7.55;;;;;;;15.63;63.76;103104.06;5018773;28;20083;-82
2021/03/30 09:31:28;;;;;;;16.25;8.05;;;;;;;15.76;63.15;103096.00;5010473;28;20840;-81
2021/03/30 09:33:58;;;;;;;15.65;7.38;;;;;;;15.90;63.56;103101.03;4997671;28;20496;-77
2021/03/30 09:36:23;;;;;;;13.48;7.38;;;;;;;15.80;62.72;103097.44;4999178;28;20611;-83
2021/03/30 09:38:55;;;;;;;12.63;7.20;;;;;;;16.01;62.94;103094.88;5004978;28;20128;-80
2021/03/30 09:41:38;;;;;;;12.18;6.60;;;;;;;16.11;60.90;103089.69;4997174;28;20076;-80
2021/03/30 09:44:05;;;;;;;14.98;6.35;;;;;;;16.11;63.57;103094.97;5014289;28;20049;-81
2021/03/30 09:46:31;;;;;;;10.05;5.75;;;;;;;16.47;61.39;103098.19;5013565;28;20121;-81
2021/03/30 09:49:11;;;;;;;14.23;5.78;;;;;;;16.57;61.05;103092.97;4993310;28;20046;-79
2021/03/30 09:51:39;;;;;;;8.52;5.30;;;;;;;16.63;60.46;103095.94;5003639;28;20033;-79
2021/03/30 09:54:29;;;;;;;11.73;6.00;;;;;;;16.67;59.27;103088.53;5009304;28;20573;-80
2021/03/30 09:57:00;;;;;;;7.93;5.13;;;;;;;16.67;60.49;103089.41;4985092;28;20076;-80
2021/03/30 09:59:26;;;;;;;14.73;5.63;;;;;;;16.73;59.96;103086.22;5014647;28;20092;-80
2021/03/30 10:01:52;;;;;;;10.63;5.30;;;;;;;16.83;60.01;103091.63;5009869;28;20050;-79
2021/03/30 10:04:20;;;;;;;11.93;5.90;;;;;;;17.05;59.19;103095.09;5021802;28;20137;-81
2021/03/30 10:06:45;;;;;;;14.50;5.78;;;;;;;17.22;58.47;103089.16;4991283;28;20460;-80
2021/03/30 10:09:11;;;;;;;12.15;5.57;;;;;;;17.43;58.06;103096.22;5005902;28;20081;-81
2021/03/30 10:11:37;;;;;;;11.75;5.35;;;;;;;17.53;55.97;103089.13;5009714;28;20523;-81
2021/03/30 10:14:20;;;;;;;11.20;5.15;;;;;;;17.37;56.95;103089.66;4993175;28;20041;-81
2021/03/30 10:16:46;;;;;;;9.55;5.22;;;;;;;17.55;55.40;103087.16;5006577;28;20089;-80
2021/03/30 10:19:13;;;;;;;10.25;5.15;;;;;;;17.63;55.54;103089.16;5024826;28;20099;-77
2021/03/30 10:21:40;;;;;;;8.52;4.93;;;;;;;17.62;56.34;103082.19;5008324;28;20038;-79
2021/03/30 10:24:24;;;;;;;9.55;4.68;;;;;;;17.81;56.04;103084.84;4976120;28;20124;-81
2021/03/30 10:27:03;;;;;;;12.63;5.13;;;;;;;17.90;56.29;103086.72;5009423;28;20774;-80
2021/03/30 10:29:39;;;;;;;10.18;4.85;;;;;;;17.99;55.62;103092.16;4994877;28;20120;-79
2021/03/30 10:32:15;;;;;;;12.73;4.75;;;;;;;18.05;55.09;103091.63;4993160;28;20038;-82
2021/03/30 10:34:41;;;;;;;7.72;4.50;;;;;;;17.97;55.47;103083.50;4999071;28;20488;-78
2021/03/30 10:37:10;;;;;;;9.38;4.95;;;;;;;18.03;55.15;103089.13;5022487;28;20339;-79
2021/03/30 10:39:42;;;;;;;8.32;4.68;;;;;;;18.27;55.19;103078.09;5015054;28;20054;-79
2021/03/30 10:42:13;;;;;;;9.25;5.20;;;;;;;18.41;53.10;103076.81;5010413;28;20050;-77
2021/03/30 10:44:45;;;;;;;11.50;5.60;;;;;;;18.49;51.52;103084.06;4988494;28;20041;-77
2021/03/30 10:47:24;;;;;;;9.73;5.00;;;;;;;18.44;52.52;103076.53;5020566;28;20165;-76
2021/03/30 10:49:53;;;;;;;12.88;4.90;;;;;;;18.48;53.44;103075.25;5015889;28;20129;-77
2021/03/30 10:52:27;;;;;;;6.97;4.80;;;;;;;18.44;53.08;103062.38;4982909;28;20049;-77
2021/03/30 10:54:56;;;;;;;10.38;4.70;;;;;;;18.59;52.48;103070.75;4986078;28;20092;-79
2021/03/30 10:57:24;;;;;;;11.85;4.95;;;;;;;18.57;51.65;103068.25;4976764;28;20113;-78
2021/03/30 10:59:50;;;;;;;12.98;4.57;;;;;;;18.71;52.48;103074.09;5007074;28;20045;-78
2021/03/30 11:02:16;;;;;;;12.38;4.72;;;;;;;18.69;53.27;103079.56;4992090;28;20052;-77
2021/03/30 11:04:42;;;;;;;8.52;4.57;;;;;;;18.41;51.71;103073.31;4981335;28;20042;-78
2021/03/30 11:07:09;;;;;;;9.95;4.93;;;;;;;18.61;51.49;103063.47;5019230;28;20056;-79
2021/03/30 11:09:36;;;;;;;10.52;5.63;;;;;;;18.89;51.72;103066.22;5002611;28;20436;-76
2021/03/30 11:12:02;;;;;;;10.07;4.88;;;;;;;18.75;49.68;103064.84;4984944;28;20119;-77
2021/03/30 11:14:27;;;;;;;7.00;4.18;;;;;;;18.73;51.01;103066.81;4990998;28;20133;-79
2021/03/30 11:16:53;;;;;;;9.05;5.20;;;;;;;18.80;50.29;103054.63;5010010;28;20049;-79
2021/03/30 11:19:20;;;;;;;9.98;4.75;;;;;;;19.06;51.21;103061.00;5025834;28;20439;-80
2021/03/30 11:21:46;;;;;;;8.93;4.03;;;;;;;19.28;50.04;103055.44;4986827;28;20095;-80
2021/03/30 11:24:21;;;;;;;9.45;4.35;;;;;;;19.43;48.18;103059.28;5009485;28;20487;-77
2021/03/30 11:26:49;;;;;;;8.88;4.40;;;;;;;19.42;48.89;103060.25;4993069;28;20061;-83
2021/03/30 11:32:08;;;;;;;12.65;4.60;;;;;;;19.54;48.29;103068.88;5004955;28;20507;-80
2021/03/30 11:34:55;;;;;;;10.55;4.00;;;;;;;19.60;47.93;103069.09;4990573;28;20120;-79
2021/03/30 11:37:49;;;;;;;6.88;4.18;;;;;;;19.41;48.68;103063.91;4976351;28;20049;-80